Time;durP1;ratioP1;P1;durP2;ratioP2;P2;SDS_P1;SDS_P2;PMS_P1;PMS_P2;Temp;Humidity;BMP_temperature;BMP_pressure;BME280_temperature;BME280_humidity;BME280_pressure;Samples;Min_cycle;Max_cycle;Signal;HPM_P1;HPM_P2
2023/04/01 00:00:28;;;;;;;1.43;0.60;;;11.90;99.90;;;12.03;nan;99065.66;4951932;28;20660;-65
2023/04/01 00:02:55;;;;;;;0.40;0.40;;;11.90;99.90;;;11.97;nan;99064.47;4951949;28;20644;-65
2023/04/01 00:05:24;;;;;;;2.67;1.10;;;11.90;99.90;;;12.00;nan;99064.16;4942400;28;20667;-65
2023/04/01 00:07:51;;;;;;;1.60;0.70;;;11.80;99.90;;;11.99;nan;99057.28;4949379;28;20690;-65
2023/04/01 00:10:18;;;;;;;0.60;0.43;;;11.90;99.90;;;12.00;nan;99069.38;4951017;28;20676;-65
2023/04/01 00:12:45;;;;;;;0.60;0.60;;;11.90;99.90;;;11.99;nan;99052.06;4953942;29;20616;-65
2023/04/01 00:15:12;;;;;;;2.73;0.70;;;11.90;99.90;;;12.02;nan;99054.38;4952996;29;20690;-66
2023/04/01 00:17:39;;;;;;;1.40;0.60;;;11.90;99.90;;;12.02;nan;99070.06;4953317;28;20636;-66
2023/04/01 00:20:07;;;;;;;1.10;0.60;;;11.90;99.90;;;12.00;nan;99055.50;4951031;28;20666;-66
2023/04/01 00:22:34;;;;;;;2.20;0.97;;;11.80;99.90;;;11.97;nan;99064.47;4951078;28;20648;-66
2023/04/01 00:25:03;;;;;;;0.43;0.43;;;11.80;99.90;;;11.94;nan;99059.56;4949291;28;20624;-67
2023/04/01 00:27:30;;;;;;;0.93;0.70;;;11.80;99.90;;;11.93;nan;99054.47;4943798;28;20630;-66
2023/04/01 00:29:57;;;;;;;0.93;0.60;;;11.80;99.90;;;11.92;nan;99050.25;4952656;28;20684;-65
2023/04/01 00:32:25;;;;;;;1.03;0.40;;;11.80;99.90;;;11.92;nan;99061.53;4953249;29;21060;-66
2023/04/01 00:34:52;;;;;;;1.33;0.80;;;11.80;99.90;;;11.99;nan;99048.66;4953059;28;20640;-67
2023/04/01 00:37:20;;;;;;;0.57;0.57;;;11.80;99.90;;;11.96;nan;99049.78;4949351;28;20638;-66
2023/04/01 00:39:48;;;;;;;2.10;0.40;;;11.80;99.90;;;11.98;nan;99055.66;4950504;28;20800;-66
2023/04/01 00:42:15;;;;;;;5.70;0.80;;;11.80;99.90;;;11.96;nan;99043.72;4945394;29;20623;-66
2023/04/01 00:44:42;;;;;;;0.60;0.60;;;11.80;99.90;;;11.94;nan;99043.06;4953482;29;20646;-66
2023/04/01 00:47:09;;;;;;;4.90;0.50;;;11.80;99.90;;;11.91;nan;99038.13;4949328;28;20755;-66
2023/04/01 00:49:42;;;;;;;1.17;0.93;;;11.70;99.90;;;11.92;nan;99045.00;4969246;28;20664;-65
2023/04/01 00:52:14;;;;;;;0.80;0.57;;;11.80;99.90;;;11.91;nan;99043.38;4965408;28;20643;-66
2023/04/01 00:54:46;;;;;;;1.77;0.67;;;11.80;99.90;;;11.92;nan;99052.84;4961664;28;20620;-67
2023/04/01 00:57:16;;;;;;;1.53;0.60;;;11.80;99.90;;;11.94;nan;99056.94;4947561;29;20698;-67
2023/04/01 00:59:49;;;;;;;0.87;0.63;;;11.80;99.90;;;11.93;nan;99055.31;4933425;29;20665;-66
2023/04/01 01:02:17;;;;;;;0.73;0.40;;;11.80;99.90;;;11.94;nan;99043.06;4931403;29;21143;-67
2023/04/01 01:04:44;;;;;;;1.80;1.03;;;11.80;99.90;;;11.92;nan;99055.47;4932366;28;20644;-65
2023/04/01 01:07:46;;;;;;;0.97;0.97;;;11.80;99.90;;;11.91;nan;99052.03;4948947;28;20640;-66
2023/04/01 01:10:26;;;;;;;0.60;0.60;;;11.80;99.90;;;11.90;nan;99058.25;4951612;28;20690;-65
2023/04/01 01:12:59;;;;;;;1.33;0.70;;;11.80;99.90;;;11.92;nan;99058.91;4948519;29;20620;-65
2023/04/01 01:15:53;;;;;;;0.83;0.60;;;11.80;99.90;;;11.88;nan;99038.47;4951860;28;20639;-63
2023/04/01 01:18:51;;;;;;;1.13;0.60;;;11.70;99.90;;;11.90;nan;99044.34;4942660;29;20710;-66
2023/04/01 01:21:42;;;;;;;1.10;1.00;;;11.70;99.90;;;11.86;nan;99050.88;4948096;28;21253;-67
2023/04/01 01:24:46;;;;;;;0.80;0.60;;;11.70;99.90;;;11.84;nan;99048.41;4952148;28;20635;-66
2023/04/01 01:27:18;;;;;;;1.30;0.70;;;11.70;99.90;;;11.86;nan;99040.41;4934859;29;20615;-64
2023/04/01 01:30:07;;;;;;;0.53;0.53;;;11.70;99.90;;;11.90;nan;99047.78;4967365;28;20651;-64
2023/04/01 01:32:55;;;;;;;1.43;0.67;;;11.80;99.90;;;11.89;nan;99040.91;5009226;23;20691;-66
2023/04/01 01:35:48;;;;;;;0.83;0.60;;;11.80;99.90;;;11.87;nan;99035.03;4990302;28;20634;-64
2023/04/01 01:38:19;;;;;;;0.70;0.70;;;11.70;99.90;;;11.81;nan;99030.44;4991278;28;20630;-66
2023/04/01 01:40:53;;;;;;;0.60;0.60;;;11.70;99.90;;;11.84;nan;99030.09;4990210;28;20677;-66
2023/04/01 01:43:30;;;;;;;2.10;0.63;;;11.70;99.90;;;11.83;nan;99031.09;4990693;28;20637;-66
2023/04/01 01:46:03;;;;;;;0.30;0.30;;;11.70;99.90;;;11.84;nan;99029.31;4990641;28;20717;-66
2023/04/01 01:48:32;;;;;;;0.47;0.47;;;11.70;99.90;;;11.84;nan;99032.72;5005771;28;20630;-66
2023/04/01 01:50:59;;;;;;;1.13;0.70;;;11.60;99.90;;;11.82;nan;99020.81;4992315;28;21246;-65
2023/04/01 01:53:26;;;;;;;0.60;0.60;;;11.60;99.90;;;11.85;nan;99018.69;5005649;28;21004;-66
2023/04/01 01:55:53;;;;;;;0.80;0.53;;;11.70;99.90;;;11.87;nan;99024.56;4991086;28;21014;-66
2023/04/01 01:58:40;;;;;;;0.33;0.33;;;11.70;99.90;;;11.87;nan;99023.75;4991831;28;21026;-65
2023/04/01 02:01:15;;;;;;;1.57;0.63;;;11.70;99.90;;;11.85;nan;99031.75;4991662;28;20657;-65
2023/04/01 02:03:44;;;;;;;4.67;0.70;;;11.70;99.90;;;11.83;nan;99028.47;4990465;28;21241;-65
2023/04/01 02:06:18;;;;;;;0.93;0.50;;;11.70;99.90;;;11.84;nan;99035.31;4992136;28;20631;-65
2023/04/01 02:08:57;;;;;;;0.83;0.67;;;11.70;99.90;;;11.81;nan;99030.44;4990803;28;20634;-64
2023/04/01 02:12:04;;;;;;;1.23;0.30;;;11.70;99.90;;;11.82;nan;99036.47;5006020;28;20678;-66
2023/04/01 02:14:47;;;;;;;1.93;0.90;;;11.70;99.90;;;11.80;nan;99028.78;4988984;28;20642;-65
2023/04/01 02:17:22;;;;;;;1.03;0.70;;;11.70;99.90;;;11.79;nan;99028.94;4980988;28;21019;-64
2023/04/01 02:20:05;;;;;;;1.10;0.80;;;11.70;99.90;;;11.73;nan;99029.56;4982603;28;21184;-65
2023/04/01 02:22:41;;;;;;;2.03;0.53;;;11.60;99.90;;;11.66;nan;99024.13;4970592;28;21110;-65
2023/04/01 02:25:15;;;;;;;0.90;0.63;;;11.50;99.90;;;11.62;nan;99026.22;4972639;28;20642;-64
2023/04/01 02:27:44;;;;;;;1.70;0.70;;;11.50;99.90;;;11.65;nan;99041.59;4998863;28;20624;-65
2023/04/01 02:30:14;;;;;;;1.23;0.40;;;11.50;99.90;;;11.65;nan;99032.91;4996474;28;20658;-64
2023/04/01 02:32:42;;;;;;;0.63;0.60;;;11.50;99.90;;;11.63;nan;99027.84;4987322;28;20701;-65
2023/04/01 02:35:12;;;;;;;3.20;0.50;;;11.50;99.90;;;11.62;nan;99041.91;4988536;28;20647;-65
2023/04/01 02:37:42;;;;;;;0.50;0.50;;;11.50;99.90;;;11.62;nan;99039.28;5005906;28;21045;-65
2023/04/01 02:40:13;;;;;;;1.83;0.70;;;11.50;99.90;;;11.56;nan;99042.50;4990137;28;20642;-65
2023/04/01 02:42:41;;;;;;;0.60;0.60;;;11.50;99.90;;;11.55;nan;99040.06;4991289;28;20665;-64
2023/04/01 02:45:13;;;;;;;0.90;0.57;;;11.40;99.90;;;11.52;nan;99033.34;4989831;28;20626;-64
2023/04/01 02:47:40;;;;;;;0.40;0.40;;;11.40;99.90;;;11.52;nan;99037.75;4989382;28;20696;-65
2023/04/01 02:50:08;;;;;;;0.50;0.50;;;11.40;99.90;;;11.49;nan;99032.84;4986527;28;20650;-65
2023/04/01 02:52:35;;;;;;;1.30;0.60;;;11.40;99.90;;;11.47;nan;99030.41;4984587;28;21038;-65
2023/04/01 02:55:03;;;;;;;1.43;0.67;;;11.40;99.90;;;11.51;nan;99030.91;4991537;28;20692;-64
2023/04/01 02:57:30;;;;;;;0.50;0.50;;;11.40;99.90;;;11.48;nan;99025.97;4997465;28;20633;-64
2023/04/01 02:59:57;;;;;;;2.00;0.73;;;11.40;99.90;;;11.51;nan;99028.28;4990343;28;20631;-65
2023/04/01 03:02:25;;;;;;;1.37;0.47;;;11.40;99.90;;;11.51;nan;99025.66;4990155;28;20661;-64
2023/04/01 03:04:52;;;;;;;1.00;0.33;;;11.40;99.90;;;11.53;nan;99031.56;4989251;28;20646;-65
2023/04/01 03:07:19;;;;;;;1.43;0.67;;;11.40;99.90;;;11.49;nan;99019.78;4985551;28;20625;-65
2023/04/01 03:09:46;;;;;;;0.60;0.60;;;11.40;99.90;;;11.45;nan;99031.50;4989298;28;20621;-64
2023/04/01 03:12:13;;;;;;;0.60;0.50;;;11.30;99.90;;;11.43;nan;99025.63;4987986;28;20677;-64
2023/04/01 03:14:40;;;;;;;0.50;0.50;;;11.30;99.90;;;11.48;nan;99039.03;4985932;28;20638;-65
2023/04/01 03:17:07;;;;;;;1.37;0.43;;;11.30;99.90;;;11.43;nan;99015.19;4985004;28;21254;-64
2023/04/01 03:19:34;;;;;;;1.00;0.60;;;11.30;99.90;;;11.44;nan;99012.41;4986159;28;20634;-64
2023/04/01 03:22:01;;;;;;;0.40;0.40;;;11.30;99.90;;;11.40;nan;99024.13;4989901;28;20654;-64
2023/04/01 03:24:28;;;;;;;2.77;0.50;;;11.30;99.90;;;11.37;nan;99021.81;4989978;28;21349;-64
2023/04/01 03:26:55;;;;;;;0.67;0.60;;;11.30;99.90;;;11.38;nan;99020.03;4989758;28;21237;-64
2023/04/01 03:29:22;;;;;;;0.90;0.60;;;11.30;99.90;;;11.40;nan;99028.53;4989798;28;20645;-64
2023/04/01 03:31:49;;;;;;;1.63;0.60;;;11.30;99.90;;;11.40;nan;99031.16;4992613;28;20717;-65
2023/04/01 03:34:16;;;;;;;0.50;0.50;;;11.30;99.90;;;11.38;nan;99028.69;4992875;28;20638;-65
2023/04/01 03:36:43;;;;;;;0.50;0.50;;;11.30;99.90;;;11.41;nan;99040.63;4992534;28;21253;-67
2023/04/01 03:39:10;;;;;;;0.30;0.30;;;11.30;99.90;;;11.39;nan;99035.53;4992800;28;20621;-65
2023/04/01 03:41:38;;;;;;;3.47;0.70;;;11.30;99.90;;;11.39;nan;99032.13;4994126;28;21274;-65
2023/04/01 03:44:05;;;;;;;1.57;0.70;;;11.30;99.90;;;11.38;nan;99022.66;4993657;28;20642;-65
2023/04/01 03:46:32;;;;;;;1.17;0.53;;;11.30;99.90;;;11.38;nan;99031.31;4991101;28;20640;-65
2023/04/01 03:48:59;;;;;;;0.63;0.50;;;11.30;99.90;;;11.39;nan;99026.91;4990954;28;21079;-65
2023/04/01 03:51:26;;;;;;;0.70;0.50;;;11.30;99.90;;;11.37;nan;99019.22;4996869;28;21060;-66
2023/04/01 03:53:53;;;;;;;3.60;0.80;;;11.30;99.90;;;11.39;nan;99029.53;4989890;28;20630;-65
2023/04/01 03:56:20;;;;;;;0.57;0.57;;;11.30;99.90;;;11.39;nan;99026.91;4985738;28;21021;-66
2023/04/01 03:58:47;;;;;;;0.47;0.47;;;11.30;99.90;;;11.36;nan;99025.41;4989845;28;20633;-64
2023/04/01 04:01:22;;;;;;;0.30;0.30;;;11.30;99.90;;;11.35;nan;99018.53;4992866;28;21116;-65
2023/04/01 04:03:50;;;;;;;0.33;0.33;;;11.20;99.90;;;11.36;nan;99020.19;4993246;28;20630;-64
2023/04/01 04:06:19;;;;;;;1.03;0.80;;;11.20;99.90;;;11.32;nan;99010.22;4988892;28;20701;-64
2023/04/01 04:08:46;;;;;;;0.40;0.40;;;11.20;99.90;;;11.31;nan;99013.78;4988822;28;21055;-65
2023/04/01 04:11:13;;;;;;;0.70;0.70;;;11.20;99.90;;;11.31;nan;99013.78;4992651;28;20728;-64
2023/04/01 04:13:40;;;;;;;1.83;0.60;;;11.20;99.90;;;11.35;nan;99021.16;4993423;28;20625;-64
2023/04/01 04:16:09;;;;;;;0.30;0.30;;;11.20;99.90;;;11.35;nan;99025.59;4986706;28;20646;-64
2023/04/01 04:18:37;;;;;;;0.50;0.50;;;11.20;99.90;;;11.34;nan;99018.72;4993892;28;21391;-64
2023/04/01 04:21:05;;;;;;;0.60;0.40;;;11.20;99.90;;;11.36;nan;99028.03;4993319;28;20645;-64
2023/04/01 04:23:33;;;;;;;0.50;0.50;;;11.30;99.90;;;11.39;nan;99029.53;5005593;28;21199;-63
2023/04/01 04:26:09;;;;;;;0.60;0.60;;;11.30;99.90;;;11.41;nan;99019.75;4990976;28;21105;-65
2023/04/01 04:28:36;;;;;;;0.50;0.50;;;11.30;99.90;;;11.40;nan;99008.47;4990781;28;21156;-65
2023/04/01 04:31:05;;;;;;;1.43;0.70;;;11.30;99.90;;;11.43;nan;99017.78;4992678;28;20670;-65
2023/04/01 04:33:32;;;;;;;1.57;0.60;;;11.30;99.90;;;11.46;nan;99033.13;4992885;28;20634;-64
2023/04/01 04:36:00;;;;;;;0.60;0.60;;;11.30;99.90;;;11.44;nan;99028.06;4992793;28;20692;-64
2023/04/01 04:38:27;;;;;;;2.93;0.60;;;11.30;99.90;;;11.49;nan;99023.22;4993100;28;20638;-64
2023/04/01 04:40:55;;;;;;;1.80;0.80;;;11.40;99.90;;;11.47;nan;99026.94;4991622;28;20659;-64
2023/04/01 04:43:22;;;;;;;0.87;0.63;;;11.40;99.90;;;11.49;nan;99027.63;4990912;28;20646;-65
2023/04/01 04:45:49;;;;;;;0.80;0.60;;;11.40;99.90;;;11.49;nan;99025.00;4992719;28;20652;-64
2023/04/01 04:48:18;;;;;;;0.60;0.60;;;11.40;99.90;;;11.50;nan;99026.63;4991681;28;20638;-65
2023/04/01 04:50:50;;;;;;;0.50;0.50;;;11.40;99.90;;;11.51;nan;99039.56;4992656;28;20654;-65
2023/04/01 04:53:19;;;;;;;1.70;0.67;;;11.40;99.90;;;11.54;nan;99022.75;5005814;28;20637;-64
2023/04/01 04:55:50;;;;;;;1.07;0.50;;;11.40;99.90;;;11.54;nan;99030.59;4998737;28;20647;-65
2023/04/01 04:58:17;;;;;;;1.57;0.70;;;11.40;99.90;;;11.54;nan;99020.94;4972226;28;20638;-65
2023/04/01 05:00:45;;;;;;;3.37;0.70;;;11.40;99.90;;;11.56;nan;99031.25;4986423;28;20638;-65
2023/04/01 05:03:13;;;;;;;1.10;0.47;;;11.50;99.90;;;11.57;nan;99033.72;4992361;28;20614;-65
2023/04/01 05:05:53;;;;;;;0.50;0.50;;;11.50;99.90;;;11.62;nan;99021.00;4990592;28;20639;-64
2023/04/01 05:08:20;;;;;;;1.80;0.40;;;11.50;99.90;;;11.65;nan;99033.75;4988698;28;20633;-65
2023/04/01 05:10:47;;;;;;;0.30;0.30;;;11.50;99.90;;;11.64;nan;99033.91;4995433;28;21418;-64
2023/04/01 05:13:14;;;;;;;0.50;0.50;;;11.60;99.90;;;11.64;nan;99028.69;4990692;28;20645;-64
2023/04/01 05:15:41;;;;;;;0.30;0.30;;;11.50;99.90;;;11.62;nan;99035.84;4991942;28;20684;-63
2023/04/01 05:18:08;;;;;;;1.00;0.70;;;11.50;99.90;;;11.60;nan;99041.25;4990779;28;20672;-64
2023/04/01 05:20:35;;;;;;;3.20;0.77;;;11.50;99.90;;;11.58;nan;99037.16;4992709;28;20623;-63
2023/04/01 05:23:02;;;;;;;0.80;0.50;;;11.50;99.90;;;11.57;nan;99043.31;4991342;28;20660;-65
2023/04/01 05:25:29;;;;;;;0.87;0.60;;;11.50;99.90;;;11.57;nan;99032.88;4991688;28;20641;-64
2023/04/01 05:27:56;;;;;;;2.80;0.67;;;11.50;99.90;;;11.56;nan;99036.47;4990334;28;20641;-65
2023/04/01 05:30:24;;;;;;;1.07;0.67;;;11.40;99.90;;;11.55;nan;99019.97;4991197;28;21217;-63
2023/04/01 05:32:50;;;;;;;0.60;0.60;;;11.50;99.90;;;11.57;nan;99038.09;4992065;28;20669;-65
2023/04/01 05:35:17;;;;;;;1.03;0.50;;;11.50;99.90;;;11.54;nan;99022.75;4991700;28;20696;-64
2023/04/01 05:37:44;;;;;;;0.50;0.40;;;11.40;99.90;;;11.53;nan;99028.94;4991265;28;20630;-65
2023/04/01 05:40:11;;;;;;;0.40;0.40;;;11.40;99.90;;;11.50;nan;99027.44;4991138;28;21187;-64
2023/04/01 05:42:38;;;;;;;0.43;0.40;;;11.40;99.90;;;11.46;nan;99026.13;4991611;28;20644;-64
2023/04/01 05:45:06;;;;;;;3.13;0.50;;;11.40;99.90;;;11.49;nan;99015.38;4985573;28;20635;-64
2023/04/01 05:47:33;;;;;;;1.37;0.40;;;11.40;99.90;;;11.48;nan;99020.75;4983968;28;20642;-64
2023/04/01 05:50:00;;;;;;;2.97;0.60;;;11.40;99.90;;;11.47;nan;99011.28;4999694;28;20625;-63
2023/04/01 05:52:27;;;;;;;0.50;0.50;;;11.40;99.90;;;11.45;nan;99015.84;4989730;28;20674;-64
2023/04/01 05:54:54;;;;;;;1.17;0.50;;;11.40;99.90;;;11.44;nan;99011.59;4991898;28;20622;-64
2023/04/01 05:57:21;;;;;;;2.53;0.60;;;11.30;99.90;;;11.45;nan;99018.47;4991173;28;20622;-64
2023/04/01 05:59:48;;;;;;;0.97;0.60;;;11.30;99.90;;;11.43;nan;99013.41;4990854;28;21263;-64
2023/04/01 06:02:18;;;;;;;0.60;0.53;;;11.30;99.90;;;11.47;nan;99019.13;4971799;28;20647;-65
2023/04/01 06:04:46;;;;;;;0.47;0.47;;;11.40;99.90;;;11.47;nan;99012.09;4986679;28;20813;-65
2023/04/01 06:07:15;;;;;;;0.90;0.60;;;11.40;99.90;;;11.51;nan;99010.00;4990962;28;20610;-64
2023/04/01 06:09:44;;;;;;;3.03;0.43;;;11.40;99.90;;;11.50;nan;99006.56;4999632;28;20661;-66
2023/04/01 06:12:39;;;;;;;0.60;0.40;;;11.40;99.90;;;11.46;nan;99017.47;4990424;28;21079;-65
2023/04/01 06:15:35;;;;;;;1.03;0.50;;;11.40;99.90;;;11.47;nan;99017.34;4972362;28;20607;-65
2023/04/01 06:18:31;;;;;;;0.43;0.40;;;11.30;99.90;;;11.47;nan;99019.94;4974852;28;20635;-65
2023/04/01 06:21:37;;;;;;;0.30;0.30;;;11.40;99.90;;;11.49;nan;99009.34;4991132;28;21034;-65
2023/04/01 06:24:30;;;;;;;0.40;0.40;;;11.40;99.90;;;11.48;nan;99021.56;4989672;28;20634;-65
2023/04/01 06:27:24;;;;;;;0.30;0.30;;;11.40;99.90;;;11.47;nan;99019.13;4989792;28;20622;-65
2023/04/01 06:29:57;;;;;;;1.00;0.60;;;11.40;99.90;;;11.45;nan;99013.22;4990453;28;20704;-65
2023/04/01 06:33:01;;;;;;;0.33;0.33;;;11.30;99.90;;;11.47;nan;99003.44;4989237;28;20682;-65
2023/04/01 06:36:10;;;;;;;0.50;0.50;;;11.40;99.90;;;11.47;nan;98999.06;4971313;28;20626;-65
2023/04/01 06:39:05;;;;;;;0.50;0.40;;;11.40;99.90;;;11.48;nan;99000.66;4981302;28;21203;-65
2023/04/01 06:42:11;;;;;;;0.53;0.37;;;11.40;99.90;;;11.52;nan;98996.78;4974575;28;20667;-65
2023/04/01 06:45:13;;;;;;;0.40;0.40;;;11.40;99.90;;;11.55;nan;99001.69;4985483;28;20630;-65
2023/04/01 06:48:12;;;;;;;0.63;0.40;;;11.40;99.90;;;11.60;nan;99003.84;5004729;28;20713;-64
2023/04/01 06:51:08;;;;;;;1.07;0.50;;;11.50;99.90;;;11.64;nan;99005.16;4985877;28;20650;-65
2023/04/01 06:53:55;;;;;;;0.40;0.40;;;11.50;99.90;;;11.65;nan;99007.63;4990583;28;20990;-65
2023/04/01 06:56:27;;;;;;;0.30;0.30;;;11.60;99.90;;;11.75;nan;99012.78;5006461;28;20615;-65
2023/04/01 06:59:05;;;;;;;0.30;0.30;;;11.60;99.90;;;11.75;nan;99007.53;4996943;28;20649;-65
2023/04/01 07:01:42;;;;;;;0.60;0.40;;;11.60;99.90;;;11.76;nan;99017.00;5006125;28;21071;-66
2023/04/01 07:04:32;;;;;;;0.40;0.40;;;11.60;99.90;;;11.74;nan;99013.72;5008583;28;20997;-65
2023/04/01 07:07:12;;;;;;;0.30;0.30;;;11.60;99.90;;;11.80;nan;99018.31;4993409;28;20634;-65
2023/04/01 07:09:45;;;;;;;3.70;0.83;;;11.70;99.90;;;11.83;nan;99007.56;4993537;28;21137;-65
2023/04/01 07:12:25;;;;;;;0.40;0.40;;;11.70;99.90;;;11.92;nan;99016.25;4993647;28;20686;-65
2023/04/01 07:14:54;;;;;;;0.50;0.50;;;11.80;99.90;;;11.98;nan;99008.63;4995073;28;20620;-66
2023/04/01 07:17:28;;;;;;;2.50;0.80;;;11.90;99.90;;;12.04;nan;99015.81;4992294;28;20626;-66
2023/04/01 07:20:20;;;;;;;0.50;0.50;;;11.90;99.90;;;12.10;nan;99009.94;5009656;28;20637;-64
2023/04/01 07:22:55;;;;;;;0.70;0.60;;;12.00;99.90;;;12.14;nan;99006.03;5008177;28;20668;-64
2023/04/01 07:25:40;;;;;;;0.53;0.30;;;12.00;99.90;;;12.27;nan;99006.41;4994087;28;21216;-61
2023/04/01 07:28:14;;;;;;;0.40;0.40;;;12.10;99.90;;;12.29;nan;99004.44;4989867;28;20637;-64
2023/04/01 07:31:30;;;;;;;1.07;0.53;;;12.20;99.90;;;12.34;nan;99004.78;4991304;28;20642;-65
2023/04/01 07:34:18;;;;;;;0.40;0.40;;;12.20;99.90;;;12.32;nan;99011.97;5025659;23;20700;-67
2023/04/01 07:37:03;;;;;;;0.63;0.50;;;12.30;99.90;;;12.27;nan;99008.19;5004164;28;20630;-66
2023/04/01 07:39:58;;;;;;;3.33;0.50;;;12.20;99.90;;;12.25;nan;99008.34;5004129;28;20637;-66
2023/04/01 07:42:59;;;;;;;1.07;0.40;;;12.20;99.90;;;12.26;nan;99007.41;5012308;28;21000;-64
2023/04/01 07:45:44;;;;;;;0.40;0.40;;;12.20;99.90;;;12.28;nan;99015.91;5006301;28;20691;-66
2023/04/01 07:48:20;;;;;;;0.40;0.40;;;12.20;99.90;;;12.34;nan;99017.03;5008751;28;20641;-68
2023/04/01 07:51:25;;;;;;;0.40;0.40;;;12.20;99.90;;;12.36;nan;99028.16;5001788;28;20639;-66
2023/04/01 07:54:18;;;;;;;0.53;0.53;;;12.20;99.90;;;12.34;nan;99017.88;5004030;28;20704;-66
2023/04/01 07:57:05;;;;;;;0.30;0.30;;;12.20;99.90;;;12.33;nan;99029.28;5011763;28;20645;-66
2023/04/01 08:00:13;;;;;;;0.30;0.30;;;12.20;99.90;;;12.30;nan;99032.25;5007488;28;20781;-66
2023/04/01 08:03:30;;;;;;;0.40;0.40;;;12.20;99.90;;;12.24;nan;99032.88;4976577;28;20668;-66
2023/04/01 08:06:43;;;;;;;0.30;0.30;;;12.10;99.90;;;12.22;nan;99029.59;5011642;28;20633;-66
2023/04/01 08:09:43;;;;;;;0.30;0.30;;;12.10;99.90;;;12.18;nan;99036.13;5017543;28;20645;-66
2023/04/01 08:13:14;;;;;;;0.50;0.37;;;12.10;99.90;;;12.17;nan;99038.91;4970699;28;20664;-66
2023/04/01 08:15:57;;;;;;;0.30;0.30;;;12.00;99.90;;;12.21;nan;99048.88;5010622;28;20634;-66
2023/04/01 08:18:27;;;;;;;1.07;0.40;;;12.00;99.90;;;12.21;nan;99046.28;5005683;28;20697;-66
2023/04/01 08:21:02;;;;;;;0.40;0.40;;;12.10;99.90;;;12.20;nan;99043.81;5012222;28;20637;-66
2023/04/01 08:23:46;;;;;;;0.40;0.40;;;12.10;99.90;;;12.22;nan;99055.72;5022068;28;20661;-66
2023/04/01 08:26:33;;;;;;;0.60;0.60;;;12.10;99.90;;;12.25;nan;99052.81;5010922;28;20621;-66
2023/04/01 08:29:26;;;;;;;0.30;0.30;;;12.10;99.90;;;12.32;nan;99048.59;5011902;28;20649;-67
2023/04/01 08:32:03;;;;;;;0.50;0.50;;;12.20;99.90;;;12.36;nan;99049.09;5007308;28;21250;-67
2023/04/01 08:34:44;;;;;;;0.97;0.53;;;12.20;99.90;;;12.40;nan;99051.22;4994936;28;20624;-67
2023/04/01 08:37:19;;;;;;;1.17;0.40;;;12.30;99.90;;;12.40;nan;99056.47;5011326;28;20613;-66
2023/04/01 08:39:55;;;;;;;0.30;0.30;;;12.30;99.90;;;12.42;nan;99064.97;5026690;28;20633;-66
2023/04/01 08:42:58;;;;;;;0.30;0.30;;;12.30;99.90;;;12.43;nan;99057.94;5009528;28;20657;-66
2023/04/01 08:46:13;;;;;;;0.43;0.43;;;12.30;99.90;;;12.49;nan;99059.91;5002943;28;21058;-67
2023/04/01 08:49:46;;;;;;;0.30;0.30;;;12.40;99.90;;;12.55;nan;99061.88;5005790;28;20641;-66
2023/04/01 08:52:26;;;;;;;0.40;0.40;;;12.40;99.90;;;12.55;nan;99047.97;4904168;28;20681;-66
2023/04/01 08:55:37;;;;;;;0.30;0.30;;;12.50;99.90;;;12.60;nan;99056.16;5001180;28;20672;-67
2023/04/01 08:58:41;;;;;;;0.40;0.40;;;12.50;99.90;;;12.62;nan;99060.25;4997123;28;20629;-66
2023/04/01 09:01:10;;;;;;;0.40;0.40;;;12.50;99.90;;;12.63;nan;99067.13;4995488;28;20627;-67
2023/04/01 09:04:39;;;;;;;0.30;0.30;;;12.50;99.90;;;12.68;nan;99066.66;5002227;28;20661;-66
2023/04/01 09:07:40;;;;;;;0.30;0.30;;;12.50;99.90;;;12.76;nan;99070.09;4894740;29;21219;-65
2023/04/01 09:10:41;;;;;;;0.40;0.40;;;12.60;99.90;;;12.78;nan;99065.50;5009303;28;20660;-65
2023/04/01 09:13:52;;;;;;;0.60;0.50;;;12.70;99.90;;;12.79;nan;99061.94;4999184;28;21120;-66
2023/04/01 09:16:41;;;;;;;0.40;0.40;;;12.70;99.90;;;12.80;nan;99065.38;4930343;28;20665;-67
2023/04/01 09:20:02;;;;;;;0.30;0.30;;;12.70;99.90;;;12.84;nan;99075.31;4992142;28;20618;-67
2023/04/01 09:22:44;;;;;;;0.40;0.40;;;12.70;99.90;;;12.85;nan;99070.91;5000838;28;20657;-67
2023/04/01 09:25:23;;;;;;;0.30;0.30;;;12.70;99.90;;;12.88;nan;99073.22;5011341;28;20621;-66
2023/04/01 09:28:12;;;;;;;0.50;0.50;;;12.70;99.90;;;12.89;nan;99078.28;5010374;28;20664;-66
2023/04/01 09:31:15;;;;;;;0.40;0.30;;;12.80;99.90;;;12.97;nan;99080.91;5011316;28;20626;-67
2023/04/01 09:34:12;;;;;;;0.50;0.50;;;12.80;99.90;;;12.99;nan;99076.31;4991408;28;20674;-67
2023/04/01 09:37:01;;;;;;;0.40;0.40;;;12.80;99.90;;;13.00;nan;99079.78;4992181;28;20634;-67
2023/04/01 09:39:42;;;;;;;0.40;0.40;;;12.90;99.90;;;13.05;nan;99083.56;5011086;28;20633;-67
2023/04/01 09:42:54;;;;;;;0.30;0.30;;;12.90;99.90;;;13.11;nan;99082.94;5010378;28;20629;-67
2023/04/01 09:45:49;;;;;;;0.40;0.40;;;13.00;99.90;;;13.18;nan;99090.94;4995874;28;20641;-67
2023/04/01 09:49:10;;;;;;;0.50;0.50;;;13.10;99.90;;;13.27;nan;99097.00;4970942;28;20642;-66
2023/04/01 09:52:19;;;;;;;0.30;0.30;;;13.10;99.90;;;13.31;nan;99093.06;4969049;28;20649;-66
2023/04/01 09:55:21;;;;;;;0.40;0.40;;;13.20;99.90;;;13.33;nan;99093.72;4981438;28;20661;-66
2023/04/01 09:58:32;;;;;;;0.37;0.37;;;13.20;99.90;;;13.35;nan;99097.81;5000569;28;20686;-69
2023/04/01 10:01:19;;;;;;;0.30;0.30;;;13.20;99.90;;;13.34;nan;99104.03;5009164;28;20623;-66
2023/04/01 10:04:45;;;;;;;0.40;0.40;;;13.20;99.90;;;13.35;nan;99102.22;5010782;28;20653;-66
2023/04/01 10:07:48;;;;;;;0.37;0.37;;;13.20;99.90;;;13.42;nan;99106.63;5009402;28;20637;-69
2023/04/01 10:10:36;;;;;;;0.60;0.53;;;13.20;99.90;;;13.47;nan;99108.75;5010301;28;20633;-67
2023/04/01 10:13:15;;;;;;;0.40;0.40;;;13.30;99.90;;;13.53;nan;99110.72;5008488;28;20671;-66
2023/04/01 10:16:00;;;;;;;0.30;0.30;;;13.40;99.90;;;13.61;nan;99106.28;4999015;28;20636;-67
2023/04/01 10:18:57;;;;;;;0.30;0.30;;;13.40;99.90;;;13.64;nan;99105.13;5010141;28;20656;-67
2023/04/01 10:22:19;;;;;;;0.30;0.30;;;13.50;99.90;;;13.63;nan;99101.69;4997165;28;21214;-67
2023/04/01 10:24:49;;;;;;;0.20;0.20;;;13.50;99.90;;;13.61;nan;99101.03;5006205;28;20617;-68
2023/04/01 10:27:41;;;;;;;0.30;0.30;;;13.50;99.90;;;13.64;nan;99105.13;5009709;28;20683;-67
2023/04/01 10:30:44;;;;;;;0.60;0.60;;;13.50;99.90;;;13.66;nan;99104.00;5011030;28;21308;-67
2023/04/01 10:33:25;;;;;;;0.40;0.40;;;13.50;99.90;;;13.71;nan;99106.13;5009583;28;21304;-66
2023/04/01 10:36:28;;;;;;;0.20;0.20;;;13.60;99.90;;;13.77;nan;99110.69;5010024;28;20659;-67
2023/04/01 10:39:33;;;;;;;0.40;0.40;;;13.60;99.90;;;13.72;nan;99103.31;4994842;28;20630;-67
2023/04/01 10:42:40;;;;;;;0.40;0.40;;;13.60;99.90;;;13.75;nan;99099.56;4993138;28;20640;-65
2023/04/01 10:45:30;;;;;;;0.37;0.37;;;13.60;99.90;;;13.73;nan;99114.63;5013561;28;21174;-67
2023/04/01 10:48:30;;;;;;;0.50;0.50;;;13.60;99.90;;;13.75;nan;99103.00;5013275;28;20648;-66
2023/04/01 10:51:39;;;;;;;0.30;0.30;;;13.60;99.90;;;13.77;nan;99105.44;5004405;28;20636;-67
2023/04/01 10:54:41;;;;;;;0.30;0.30;;;13.60;99.90;;;13.85;nan;99110.66;5007352;28;20681;-66
2023/04/01 10:58:05;;;;;;;0.30;0.30;;;13.70;99.90;;;13.88;nan;99105.91;5005368;28;21013;-66
2023/04/01 11:01:05;;;;;;;0.30;0.30;;;13.70;99.90;;;13.89;nan;99107.53;4990822;28;20636;-67
2023/04/01 11:03:50;;;;;;;0.40;0.40;;;13.70;99.90;;;13.94;nan;99104.44;5013453;28;20680;-66
2023/04/01 11:06:51;;;;;;;0.40;0.40;;;13.80;99.90;;;14.02;nan;99104.41;5013303;28;20967;-67
2023/04/01 11:10:02;;;;;;;0.40;0.40;;;13.80;99.90;;;14.01;nan;99118.50;5013282;28;20667;-68
2023/04/01 11:13:17;;;;;;;0.40;0.40;;;13.90;99.90;;;14.09;nan;99109.78;5004269;28;20673;-68
2023/04/01 11:16:05;;;;;;;0.50;0.50;;;13.90;99.90;;;14.11;nan;99118.31;4999401;28;20912;-67
2023/04/01 11:18:55;;;;;;;0.70;0.40;;;13.90;99.90;;;14.15;nan;99109.09;5014867;28;20676;-70
2023/04/01 11:21:59;;;;;;;0.50;0.40;;;14.00;99.90;;;14.15;nan;99125.66;5010718;28;20630;-66
2023/04/01 11:24:49;;;;;;;0.30;0.30;;;14.00;99.90;;;14.05;nan;99118.97;5029865;28;20640;-68
2023/04/01 11:27:38;;;;;;;0.40;0.30;;;14.00;99.90;;;13.98;nan;99118.84;5013073;28;20637;-68
2023/04/01 11:30:49;;;;;;;0.40;0.40;;;13.90;99.90;;;13.94;nan;99114.91;5005014;28;20613;-68